createdAt,value
2023-02-22T00:02:13.279Z,35.75
2023-02-22T00:04:42.021Z,42.97
2023-02-22T00:07:10.360Z,41.20
2023-02-22T00:09:40.262Z,41.88
2023-02-22T00:12:10.304Z,46.83
2023-02-22T00:14:40.360Z,41.35
2023-02-22T00:17:08.640Z,39.63
2023-02-22T00:19:37.182Z,38.92
2023-02-22T00:22:05.456Z,39.08
2023-02-22T00:24:36.239Z,36.40
2023-02-22T00:27:05.794Z,37.92
2023-02-22T00:29:34.787Z,40.53
2023-02-22T00:32:03.166Z,36.58
2023-02-22T00:34:31.876Z,40.45
2023-02-22T00:37:03.093Z,36.03
2023-02-22T00:39:31.592Z,44.15
2023-02-22T00:42:00.344Z,43.65
2023-02-22T00:44:30.466Z,36.42
2023-02-22T00:46:58.747Z,42.67
2023-02-22T00:49:27.275Z,40.85
2023-02-22T00:51:56.035Z,38.95
2023-02-22T00:54:24.566Z,43.20
2023-02-22T00:56:54.157Z,35.97
2023-02-22T00:59:22.755Z,31.85
2023-02-22T01:01:52.313Z,33.28
2023-02-22T01:04:20.895Z,33.08
2023-02-22T01:06:49.354Z,34.22
2023-02-22T01:09:17.834Z,30.20
2023-02-22T01:11:46.499Z,40.75
2023-02-22T01:14:15.021Z,38.38
2023-02-22T01:16:44.532Z,32.72
2023-02-22T01:19:14.372Z,40.40
2023-02-22T01:21:42.574Z,40.70
2023-02-22T01:24:11.652Z,40.78
2023-02-22T01:26:39.985Z,40.75
2023-02-22T01:29:10.208Z,35.35
2023-02-22T01:31:38.477Z,46.88
2023-02-22T01:34:07.024Z,46.08
2023-02-22T01:36:36.712Z,47.33
2023-02-22T01:39:05.549Z,43.08
2023-02-22T01:41:34.025Z,41.97
2023-02-22T01:44:21.590Z,42.10
2023-02-22T01:46:49.866Z,38.75
2023-02-22T01:49:18.614Z,44.30
2023-02-22T01:51:52.787Z,39.28
2023-02-22T01:54:25.047Z,39.83
2023-02-22T01:56:56.037Z,41.28
2023-02-22T01:59:25.181Z,36.55
2023-02-22T02:01:53.408Z,36.55
2023-02-22T02:04:25.631Z,35.85
2023-02-22T02:06:56.084Z,33.85
2023-02-22T02:09:31.256Z,30.27
2023-02-22T02:12:02.771Z,30.83
2023-02-22T02:14:33.018Z,29.02
2023-02-22T02:17:02.495Z,32.58
2023-02-22T02:19:40.059Z,34.00
2023-02-22T02:22:25.730Z,38.38
2023-02-22T02:25:19.203Z,32.45
2023-02-22T02:28:19.289Z,35.20
2023-02-22T02:31:03.564Z,38.55
2023-02-22T02:33:34.858Z,35.30
2023-02-22T02:36:05.966Z,36.65
2023-02-22T02:38:36.363Z,35.65
2023-02-22T02:41:10.797Z,33.47
2023-02-22T02:43:43.545Z,35.83
2023-02-22T02:46:16.141Z,39.90
2023-02-22T02:48:50.515Z,40.63
2023-02-22T02:51:19.828Z,38.90
2023-02-22T02:53:49.291Z,38.53
2023-02-22T02:56:17.859Z,43.20
2023-02-22T02:58:49.211Z,41.30
2023-02-22T03:01:24.438Z,40.38
2023-02-22T03:04:03.485Z,38.45
2023-02-22T03:06:51.441Z,44.47
2023-02-22T03:09:28.916Z,40.13
2023-02-22T03:12:05.315Z,40.10
2023-02-22T03:14:39.583Z,40.15
2023-02-22T03:17:16.308Z,34.38
2023-02-22T03:19:48.007Z,35.42
2023-02-22T03:22:23.894Z,38.28
2023-02-22T03:24:55.200Z,36.88
2023-02-22T03:27:28.174Z,44.00
2023-02-22T03:30:00.906Z,36.17
2023-02-22T03:32:32.814Z,38.03
2023-02-22T03:35:06.562Z,38.08
2023-02-22T03:37:37.600Z,38.53
2023-02-22T03:40:13.959Z,29.02
2023-02-22T03:42:45.190Z,29.17
2023-02-22T03:45:15.737Z,36.60
2023-02-22T03:47:47.476Z,29.65
2023-02-22T03:52:48.451Z,30.42
2023-02-22T03:55:17.865Z,27.73
2023-02-22T03:57:48.219Z,28.88
2023-02-22T04:00:22.484Z,29.77
2023-02-22T04:02:51.162Z,33.30
2023-02-22T04:05:21.516Z,28.73
2023-02-22T04:07:50.278Z,33.80
2023-02-22T04:10:19.004Z,49.35
2023-02-22T04:12:47.821Z,41.28
2023-02-22T04:15:17.991Z,43.75
2023-02-22T04:17:46.806Z,45.23
2023-02-22T04:20:15.435Z,47.38
2023-02-22T04:22:45.369Z,47.33
2023-02-22T04:25:13.821Z,43.88
2023-02-22T04:27:42.453Z,43.70
2023-02-22T04:30:11.985Z,41.72
2023-02-22T04:32:40.771Z,46.35
2023-02-22T04:35:09.590Z,40.70
2023-02-22T04:37:38.149Z,36.75
2023-02-22T04:40:08.952Z,40.97
2023-02-22T04:42:37.941Z,41.92
2023-02-22T04:45:08.052Z,36.30
2023-02-22T04:47:36.714Z,33.87
2023-02-22T04:50:05.596Z,37.25
2023-02-22T04:52:36.771Z,35.95
2023-02-22T04:55:05.991Z,35.17
2023-02-22T04:57:35.868Z,33.60
2023-02-22T05:00:05.879Z,41.28
2023-02-22T05:02:34.489Z,44.57
2023-02-22T05:05:02.814Z,40.97
2023-02-22T05:07:31.452Z,47.83
2023-02-22T05:09:59.640Z,47.22
2023-02-22T05:12:28.662Z,50.28
2023-02-22T05:14:58.726Z,45.03
2023-02-22T05:17:26.883Z,51.33
2023-02-22T05:19:55.460Z,45.47
2023-02-22T05:22:24.547Z,38.17
2023-02-22T05:24:53.497Z,42.15
2023-02-22T05:27:21.927Z,46.60
2023-02-22T05:29:50.752Z,42.00
2023-02-22T05:32:20.345Z,40.17
2023-02-22T05:34:48.963Z,45.63
2023-02-22T05:37:17.533Z,46.28
2023-02-22T05:39:46.827Z,35.75
2023-02-22T05:42:15.021Z,39.38
2023-02-22T05:44:44.159Z,39.50
2023-02-22T05:47:12.421Z,33.95
2023-02-22T05:49:42.458Z,44.10
2023-02-22T05:52:10.580Z,38.15
2023-02-22T05:54:39.184Z,32.65
2023-02-22T05:57:07.822Z,35.13
2023-02-22T05:59:36.327Z,33.88
2023-02-22T06:02:04.833Z,41.67
2023-02-22T06:04:33.318Z,33.70
2023-02-22T06:07:03.036Z,37.78
2023-02-22T06:09:31.701Z,49.92
2023-02-22T06:12:00.100Z,47.05
2023-02-22T06:14:28.509Z,51.78
2023-02-22T06:16:57.695Z,54.28
2023-02-22T06:19:26.614Z,60.53
2023-02-22T06:21:57.148Z,62.78
2023-02-22T06:24:27.688Z,49.50
2023-02-22T06:26:57.041Z,54.85
2023-02-22T06:29:25.742Z,54.60
2023-02-22T06:31:54.090Z,59.28
2023-02-22T06:34:23.214Z,55.00
2023-02-22T06:36:51.648Z,58.65
2023-02-22T06:39:20.214Z,64.97
2023-02-22T06:41:51.576Z,48.50
2023-02-22T06:44:20.146Z,43.03
2023-02-22T06:46:50.997Z,43.28
2023-02-22T06:49:20.328Z,42.33
2023-02-22T06:51:48.747Z,57.25
2023-02-22T06:54:17.396Z,69.70
2023-02-22T06:56:45.733Z,47.35
2023-02-22T06:59:15.704Z,33.67
2023-02-22T07:01:44.688Z,43.55
2023-02-22T07:04:13.237Z,52.40
2023-02-22T07:06:41.667Z,39.50
2023-02-22T07:09:10.533Z,40.35
2023-02-22T07:11:39.917Z,37.30
2023-02-22T07:14:08.563Z,36.70
2023-02-22T07:16:38.439Z,36.38
2023-02-22T07:19:06.989Z,31.42
2023-02-22T07:21:35.375Z,34.97
2023-02-22T07:24:05.472Z,36.67
2023-02-22T07:26:40.137Z,35.63
2023-02-22T07:29:08.778Z,35.15
2023-02-22T07:31:39.058Z,34.05
2023-02-22T07:34:07.843Z,33.95
2023-02-22T07:36:36.190Z,35.90
2023-02-22T07:39:04.807Z,30.40
2023-02-22T07:41:33.307Z,36.42
2023-02-22T07:44:01.802Z,43.72
2023-02-22T07:46:30.257Z,33.50
2023-02-22T07:49:00.152Z,43.65
2023-02-22T07:51:28.516Z,48.67
2023-02-22T07:53:56.999Z,37.38
2023-02-22T07:56:25.227Z,33.15
2023-02-22T07:58:53.794Z,38.25
2023-02-22T08:01:22.198Z,32.05
2023-02-22T08:03:50.711Z,31.70
2023-02-22T08:06:21.085Z,31.10
2023-02-22T08:08:49.589Z,30.38
2023-02-22T08:11:18.103Z,39.50
2023-02-22T08:13:46.784Z,36.65
2023-02-22T08:16:14.972Z,36.45
2023-02-22T08:18:43.513Z,39.45
2023-02-22T08:21:11.732Z,38.00
2023-02-22T08:23:41.604Z,37.85
2023-02-22T08:26:15.697Z,38.38
2023-02-22T08:28:44.337Z,28.80
2023-02-22T08:31:12.704Z,33.25
2023-02-22T08:33:41.618Z,40.03
2023-02-22T08:36:10.571Z,35.40
2023-02-22T08:38:39.070Z,43.72
2023-02-22T08:41:08.741Z,45.90
2023-02-22T08:43:37.299Z,43.90
2023-02-22T08:46:06.166Z,38.83
2023-02-22T08:48:34.838Z,38.40
2023-02-22T08:51:03.110Z,40.53
2023-02-22T08:53:32.946Z,34.38
2023-02-22T08:56:01.147Z,39.30
2023-02-22T08:58:31.058Z,33.35
2023-02-22T09:00:59.646Z,36.25
2023-02-22T09:03:28.403Z,33.90
2023-02-22T09:05:59.558Z,33.45
2023-02-22T09:08:28.374Z,27.48
2023-02-22T09:10:56.673Z,26.48
2023-02-22T09:13:25.443Z,27.80
2023-02-22T09:15:55.029Z,20.80
2023-02-22T09:18:24.503Z,21.75
2023-02-22T09:20:53.721Z,22.85
2023-02-22T09:23:22.831Z,24.98
2023-02-22T09:25:51.868Z,49.30
2023-02-22T09:28:20.405Z,36.70
2023-02-22T09:30:49.055Z,34.35
2023-02-22T09:33:21.048Z,27.70
2023-02-22T09:35:51.007Z,29.27
2023-02-22T09:38:22.852Z,26.85
2023-02-22T09:40:52.884Z,26.17
2023-02-22T09:43:37.136Z,21.60
2023-02-22T09:46:23.093Z,23.65
2023-02-22T09:49:07.755Z,22.70
2023-02-22T09:51:42.641Z,30.55
2023-02-22T09:54:17.743Z,21.83
2023-02-22T09:56:47.717Z,27.92
2023-02-22T09:59:20.482Z,29.20
2023-02-22T10:01:51.423Z,24.60
2023-02-22T10:04:24.880Z,29.55
2023-02-22T10:07:06.239Z,22.45
2023-02-22T10:09:38.457Z,22.40
2023-02-22T10:12:12.849Z,21.42
2023-02-22T10:14:50.782Z,18.55
2023-02-22T10:17:27.545Z,25.13
2023-02-22T10:20:08.435Z,23.25
2023-02-22T10:22:57.928Z,19.27
2023-02-22T10:25:28.034Z,16.02
2023-02-22T10:27:59.004Z,19.35
2023-02-22T10:33:00.974Z,15.98
2023-02-22T10:35:34.423Z,13.70
2023-02-22T10:38:08.616Z,17.13
2023-02-22T10:40:37.202Z,19.92
2023-02-22T10:43:07.257Z,25.83
2023-02-22T10:45:37.248Z,19.35
2023-02-22T10:48:11.745Z,16.05
2023-02-22T10:50:43.400Z,15.40
2023-02-22T10:56:12.843Z,23.33
2023-02-22T10:58:49.280Z,15.50
2023-02-22T11:01:38.557Z,19.17
2023-02-22T11:04:13.098Z,18.65
2023-02-22T11:06:45.100Z,24.42
2023-02-22T11:09:15.714Z,19.38
2023-02-22T11:11:47.262Z,21.17
2023-02-22T11:14:27.150Z,24.15
2023-02-22T11:16:57.076Z,23.27
2023-02-22T11:19:26.990Z,24.65
2023-02-22T11:21:58.745Z,25.17
2023-02-22T11:27:09.063Z,17.50
2023-02-22T11:29:38.417Z,15.38
2023-02-22T11:32:15.420Z,16.38
2023-02-22T11:34:44.204Z,19.88
2023-02-22T11:37:30.587Z,19.67
2023-02-22T11:40:19.835Z,17.65
2023-02-22T11:42:48.707Z,18.98
2023-02-22T11:45:20.943Z,20.60
2023-02-22T11:47:53.755Z,16.27
2023-02-22T11:50:29.750Z,21.35
2023-02-22T11:53:10.614Z,32.25
2023-02-22T11:55:46.880Z,27.17
2023-02-22T11:58:28.463Z,40.08
2023-02-22T12:01:01.822Z,19.50
2023-02-22T12:03:58.592Z,20.95
2023-02-22T12:06:33.628Z,45.65
2023-02-22T12:09:14.177Z,24.75
2023-02-22T12:11:50.959Z,14.40
2023-02-22T12:14:26.886Z,35.60
2023-02-22T12:17:13.935Z,39.00
2023-02-22T12:19:44.695Z,27.50
2023-02-22T12:22:17.968Z,50.57
2023-02-22T12:24:55.453Z,21.73
2023-02-22T12:27:35.397Z,38.97
2023-02-22T12:30:07.125Z,81.07
2023-02-22T12:35:14.405Z,36.33
2023-02-22T12:37:52.448Z,57.83
2023-02-22T12:40:25.878Z,47.67
2023-02-22T12:42:58.869Z,23.27
2023-02-22T12:45:31.932Z,17.60
2023-02-22T12:48:08.853Z,25.90
2023-02-22T12:50:38.715Z,16.15
2023-02-22T12:53:15.199Z,41.70
2023-02-22T12:55:49.308Z,32.13
2023-02-22T12:58:25.367Z,20.80
2023-02-22T13:01:00.725Z,31.70
2023-02-22T13:03:33.431Z,39.10
2023-02-22T13:06:24.868Z,43.45
2023-02-22T13:09:03.959Z,50.15
2023-02-22T13:11:41.290Z,46.90
2023-02-22T13:14:18.429Z,27.77
2023-02-22T13:16:52.838Z,19.55
2023-02-22T13:19:34.220Z,47.15
2023-02-22T13:22:07.225Z,29.45
2023-02-22T13:24:41.813Z,23.75
2023-02-22T13:27:15.586Z,19.60
2023-02-22T13:29:46.205Z,28.25
2023-02-22T13:32:26.630Z,24.98
2023-02-22T13:35:31.948Z,22.52
2023-02-22T13:38:11.811Z,20.70
2023-02-22T13:41:12.407Z,23.55
2023-02-22T13:43:55.290Z,18.27
2023-02-22T13:47:01.332Z,16.67
2023-02-22T13:49:49.371Z,23.65
2023-02-22T13:52:18.870Z,16.75
2023-02-22T13:54:51.613Z,16.05
2023-02-22T13:57:22.267Z,17.13
2023-02-22T14:00:24.451Z,28.55
2023-02-22T14:03:02.219Z,20.67
2023-02-22T14:05:52.332Z,22.15
2023-02-22T14:08:42.775Z,20.92
2023-02-22T14:11:56.992Z,21.30
2023-02-22T14:14:25.921Z,20.08
2023-02-22T14:17:24.038Z,22.73
2023-02-22T14:20:04.787Z,17.85
2023-02-22T14:22:33.332Z,20.17
2023-02-22T14:25:01.592Z,22.27
2023-02-22T14:27:41.028Z,25.23
2023-02-22T14:30:26.221Z,18.17
2023-02-22T14:32:56.473Z,26.30
2023-02-22T14:35:28.788Z,30.40
2023-02-22T14:38:02.880Z,28.95
2023-02-22T14:40:32.776Z,31.75
2023-02-22T14:43:04.919Z,33.42
2023-02-22T14:45:34.766Z,27.05
2023-02-22T14:48:13.684Z,24.25
2023-02-22T14:50:45.412Z,20.75
2023-02-22T14:53:22.191Z,22.60
2023-02-22T14:55:56.278Z,19.65
2023-02-22T14:58:27.530Z,27.25
2023-02-22T15:00:56.975Z,23.13
2023-02-22T15:03:34.392Z,26.52
2023-02-22T15:06:07.475Z,29.40
2023-02-22T15:08:41.755Z,25.98
2023-02-22T15:11:21.709Z,25.88
2023-02-22T15:13:54.405Z,21.55
2023-02-22T15:16:24.028Z,19.52
2023-02-22T15:18:56.668Z,22.23
2023-02-22T15:21:27.146Z,20.63
2023-02-22T15:23:58.130Z,17.47
2023-02-22T15:26:30.821Z,23.75
2023-02-22T15:29:00.527Z,28.25
2023-02-22T15:31:32.229Z,23.48
2023-02-22T15:34:22.277Z,34.47
2023-02-22T15:36:54.610Z,36.97
2023-02-22T15:39:27.224Z,21.30
2023-02-22T15:42:08.059Z,25.40
2023-02-22T15:44:38.809Z,24.20
2023-02-22T15:47:07.997Z,19.33
2023-02-22T15:49:38.131Z,19.55
2023-02-22T15:52:09.759Z,20.50
2023-02-22T15:54:41.513Z,24.90
2023-02-22T15:59:44.563Z,31.77
2023-02-22T16:02:30.303Z,37.47
2023-02-22T16:05:02.992Z,29.02
2023-02-22T16:07:31.279Z,36.35
2023-02-22T16:10:08.199Z,29.33
2023-02-22T16:12:37.110Z,38.15
2023-02-22T16:15:16.699Z,38.55
2023-02-22T16:18:01.068Z,36.42
2023-02-22T16:20:35.465Z,38.28
2023-02-22T16:23:23.783Z,37.95
2023-02-22T16:26:19.951Z,53.17
2023-02-22T16:28:52.015Z,39.50
2023-02-22T16:31:22.378Z,40.22
2023-02-22T16:33:51.270Z,41.28
2023-02-22T16:36:22.702Z,41.30
2023-02-22T16:38:51.881Z,52.88
2023-02-22T16:41:20.890Z,43.17
2023-02-22T16:43:51.364Z,36.15
2023-02-22T16:46:20.532Z,47.30
2023-02-22T16:48:49.014Z,47.97
2023-02-22T16:51:22.148Z,48.35
2023-02-22T16:53:51.190Z,97.35
2023-02-22T16:56:21.372Z,105.53
2023-02-22T16:58:51.215Z,66.75
2023-02-22T17:01:20.096Z,53.30
2023-02-22T17:03:48.654Z,42.85
2023-02-22T17:06:17.509Z,56.38
2023-02-22T17:08:47.261Z,49.08
2023-02-22T17:11:15.964Z,49.63
2023-02-22T17:13:45.807Z,37.70
2023-02-22T17:16:16.546Z,49.45
2023-02-22T17:18:46.143Z,75.00
2023-02-22T17:21:16.806Z,74.35
2023-02-22T17:23:46.272Z,90.05
2023-02-22T17:26:18.186Z,76.68
2023-02-22T17:28:46.626Z,71.15
2023-02-22T17:31:20.967Z,77.45
2023-02-22T17:33:51.454Z,69.80
2023-02-22T17:36:20.977Z,60.05
2023-02-22T17:38:50.187Z,48.90
2023-02-22T17:41:20.419Z,45.70
2023-02-22T17:43:48.750Z,46.42
2023-02-22T17:46:19.789Z,62.97
2023-02-22T17:48:49.391Z,65.32
2023-02-22T17:51:18.113Z,71.57
2023-02-22T17:53:46.452Z,79.82
2023-02-22T17:56:18.865Z,64.00
2023-02-22T17:58:50.803Z,73.63
2023-02-22T18:01:27.232Z,69.85
2023-02-22T18:03:57.045Z,63.92
2023-02-22T18:06:28.573Z,77.95
2023-02-22T18:08:58.932Z,69.45
2023-02-22T18:11:32.616Z,63.42
2023-02-22T18:14:02.611Z,95.88
2023-02-22T18:16:31.135Z,49.88
2023-02-22T18:19:01.741Z,66.10
2023-02-22T18:21:30.470Z,62.40
2023-02-22T18:23:58.808Z,77.93
2023-02-22T18:26:28.119Z,124.72
2023-02-22T18:28:57.374Z,61.47
2023-02-22T18:31:27.346Z,93.05
2023-02-22T18:33:57.631Z,88.72
2023-02-22T18:36:26.245Z,118.10
2023-02-22T18:38:55.811Z,81.63
2023-02-22T18:41:27.105Z,83.72
2023-02-22T18:43:59.065Z,80.95
2023-02-22T18:46:30.346Z,85.18
2023-02-22T18:48:59.178Z,92.65
2023-02-22T18:51:28.473Z,75.40
2023-02-22T18:54:00.590Z,78.82
2023-02-22T18:56:31.039Z,94.72
2023-02-22T18:59:00.313Z,61.40
2023-02-22T19:01:31.358Z,69.72
2023-02-22T19:03:59.677Z,58.72
2023-02-22T19:06:28.234Z,57.25
2023-02-22T19:08:56.414Z,60.05
2023-02-22T19:11:25.816Z,54.38
2023-02-22T19:13:55.720Z,50.85
2023-02-22T19:16:26.618Z,59.03
2023-02-22T19:18:58.080Z,65.13
2023-02-22T19:21:27.858Z,60.97
2023-02-22T19:23:56.048Z,52.20
2023-02-22T19:26:26.311Z,58.47
2023-02-22T19:28:56.567Z,65.90
2023-02-22T19:31:29.807Z,70.13
2023-02-22T19:34:03.444Z,68.40
2023-02-22T19:36:32.169Z,80.30
2023-02-22T19:39:02.018Z,70.15
2023-02-22T19:41:31.161Z,86.70
2023-02-22T19:43:59.804Z,98.60
2023-02-22T19:46:28.587Z,91.05
2023-02-22T19:48:57.338Z,87.72
2023-02-22T19:51:28.789Z,89.88
2023-02-22T19:53:58.784Z,113.57
2023-02-22T19:56:28.466Z,99.43
2023-02-22T19:58:58.092Z,109.20
2023-02-22T20:01:29.203Z,105.60
2023-02-22T20:04:00.102Z,109.78
2023-02-22T20:06:34.900Z,100.85
2023-02-22T20:09:04.211Z,94.32
2023-02-22T20:11:32.421Z,86.72
2023-02-22T20:14:02.158Z,113.63
2023-02-22T20:16:30.799Z,110.55
2023-02-22T20:18:59.548Z,115.75
2023-02-22T20:21:31.962Z,119.97
2023-02-22T20:24:01.137Z,152.85
2023-02-22T20:26:31.092Z,119.40
2023-02-22T20:29:00.153Z,117.25
2023-02-22T20:31:29.649Z,119.72
2023-02-22T20:34:00.030Z,115.97
2023-02-22T20:36:31.120Z,114.00
2023-02-22T20:41:29.862Z,131.38
2023-02-22T20:43:58.692Z,136.07
2023-02-22T20:46:28.198Z,114.72
2023-02-22T20:48:57.290Z,115.18
2023-02-22T20:51:26.366Z,107.65
2023-02-22T20:53:59.853Z,118.30
2023-02-22T20:56:29.895Z,124.65
2023-02-22T20:59:00.150Z,123.30
2023-02-22T21:01:28.582Z,132.63
2023-02-22T21:04:01.652Z,135.02
2023-02-22T21:06:30.953Z,136.07
2023-02-22T21:09:02.861Z,137.48
2023-02-22T21:11:32.469Z,129.77
2023-02-22T21:14:01.784Z,141.82
2023-02-22T21:16:31.889Z,141.60
2023-02-22T21:19:03.415Z,136.10
2023-02-22T21:21:32.070Z,134.02
2023-02-22T21:24:02.249Z,135.25
2023-02-22T21:26:33.100Z,143.38
2023-02-22T21:29:03.540Z,147.00
2023-02-22T21:31:33.012Z,127.38
2023-02-22T21:34:02.271Z,143.15
2023-02-22T21:36:32.133Z,142.25
2023-02-22T21:39:08.475Z,125.38
2023-02-22T21:41:39.167Z,127.50
2023-02-22T21:44:09.230Z,152.55
2023-02-22T21:46:37.660Z,139.80
2023-02-22T21:49:06.277Z,137.93
2023-02-22T21:51:35.166Z,144.50
2023-02-22T21:54:07.355Z,147.82
2023-02-22T21:56:38.044Z,148.90
2023-02-22T21:59:11.780Z,151.55
2023-02-22T22:01:43.074Z,141.95
2023-02-22T22:04:13.753Z,147.60
2023-02-22T22:06:42.203Z,146.13
2023-02-22T22:09:18.388Z,139.52
2023-02-22T22:11:49.702Z,147.15
2023-02-22T22:14:18.719Z,147.60
2023-02-22T22:16:48.485Z,157.65
2023-02-22T22:19:17.893Z,143.20
2023-02-22T22:21:48.915Z,158.38
2023-02-22T22:26:51.263Z,146.15
2023-02-22T22:29:19.864Z,136.48
2023-02-22T22:31:48.834Z,142.48
2023-02-22T22:34:17.508Z,117.18
2023-02-22T22:36:47.578Z,134.23
2023-02-22T22:39:16.218Z,137.47
2023-02-22T22:41:46.435Z,125.80
2023-02-22T22:44:16.515Z,118.00
2023-02-22T22:46:49.152Z,122.43
2023-02-22T22:49:18.594Z,106.15
2023-02-22T22:51:47.562Z,107.32
2023-02-22T22:54:16.067Z,95.43
2023-02-22T22:56:46.562Z,88.78
2023-02-22T22:59:15.401Z,96.88
2023-02-22T23:01:45.399Z,87.72
2023-02-22T23:04:16.937Z,89.37
2023-02-22T23:09:18.903Z,92.82
2023-02-22T23:11:51.039Z,84.47
2023-02-22T23:14:21.491Z,87.72
2023-02-22T23:16:50.965Z,83.47
2023-02-22T23:19:20.413Z,70.95
2023-02-22T23:21:49.220Z,82.38
2023-02-22T23:24:20.790Z,76.72
2023-02-22T23:26:50.731Z,82.15
2023-02-22T23:29:20.857Z,75.95
2023-02-22T23:31:49.571Z,71.28
2023-02-22T23:34:21.218Z,69.05
2023-02-22T23:36:50.120Z,69.45
2023-02-22T23:39:20.636Z,63.67
2023-02-22T23:41:52.773Z,63.38
2023-02-22T23:44:21.994Z,74.07
2023-02-22T23:46:55.290Z,61.42
2023-02-22T23:49:26.245Z,65.32
2023-02-22T23:51:54.648Z,71.47
2023-02-22T23:54:24.612Z,54.58
2023-02-22T23:56:57.304Z,52.00
2023-02-22T23:59:27.176Z,54.25
